Time;durP1;ratioP1;P1;durP2;ratioP2;P2;SDS_P1;SDS_P2;PMS_P1;PMS_P2;Temp;Humidity;BMP_temperature;BMP_pressure;BME280_temperature;BME280_humidity;BME280_pressure;Samples;Min_cycle;Max_cycle;Signal;HPM_P1;HPM_P2
2022/11/20 00:01:34;;;;;;;;;14.00;12.50;;;;;9.35;65.77;101133.63;6209981;22;45398;-77
2022/11/20 00:04:00;;;;;;;;;8.50;7.00;;;;;9.17;65.41;101103.75;6185195;23;47115;-78
2022/11/20 00:06:27;;;;;;;;;12.75;10.75;;;;;9.17;65.49;101108.13;6187346;23;45149;-78
2022/11/20 00:08:55;;;;;;;;;10.00;10.00;;;;;9.20;65.92;101130.03;6185702;23;45202;-77
2022/11/20 00:11:23;;;;;;;;;8.25;8.25;;;;;9.23;65.69;101143.19;6187220;23;45329;-78
2022/11/20 00:13:51;;;;;;;;;12.75;12.25;;;;;9.06;65.91;101123.75;6186800;23;45547;-78
2022/11/20 00:16:20;;;;;;;;;10.75;10.75;;;;;9.14;66.16;101131.72;6186844;23;45366;-77
2022/11/20 00:18:49;;;;;;;;;10.00;10.00;;;;;9.04;66.04;101130.78;6184929;23;45351;-78
2022/11/20 00:21:19;;;;;;;;;14.25;12.00;;;;;8.80;65.97;101094.69;6187359;23;45225;-78
2022/11/20 00:23:45;;;;;;;;;10.75;8.50;;;;;8.83;66.21;101103.44;6184741;23;47145;-79
2022/11/20 00:26:13;;;;;;;;;10.00;9.00;;;;;8.95;66.47;101130.66;6187056;23;45794;-78
2022/11/20 00:28:39;;;;;;;;;9.00;9.00;;;;;8.71;66.11;101103.31;6184990;23;45252;-78
2022/11/20 00:31:08;;;;;;;;;9.00;9.00;;;;;8.90;66.42;101145.50;6184775;23;45265;-78
2022/11/20 00:33:34;;;;;;;;;11.25;10.25;;;;;8.79;66.74;101130.56;6186257;23;45321;-79
2022/11/20 00:36:35;;;;;;;;;11.00;11.00;;;;;8.80;66.55;101132.31;6182944;23;45765;-81
2022/11/20 00:39:00;;;;;;;;;10.50;9.25;;;;;8.65;66.44;101116.38;6132961;23;45381;-78
2022/11/20 00:41:27;;;;;;;;;8.50;8.50;;;;;8.69;66.51;101123.44;6185563;23;45162;-78
2022/11/20 00:43:55;;;;;;;;;12.25;10.00;;;;;8.71;66.45;101137.44;6183847;23;45474;-78
2022/11/20 00:46:22;;;;;;;;;9.50;7.75;;;;;8.72;66.82;101133.97;6183757;23;45426;-78
2022/11/20 00:48:48;;;;;;;;;13.50;9.25;;;;;8.64;66.63;101132.13;6181819;23;45392;-78
2022/11/20 00:51:20;;;;;;;;;11.25;10.00;;;;;8.75;66.34;101152.38;6184269;23;45554;-77
2022/11/20 00:53:46;;;;;;;;;11.50;10.25;;;;;8.61;67.18;101139.09;6182132;23;48426;-78
2022/11/20 00:56:16;;;;;;;;;14.75;10.75;;;;;8.52;66.58;101132.88;6181948;23;45306;-77
2022/11/20 00:58:44;;;;;;;;;16.25;14.00;;;;;8.48;66.34;101131.09;6186817;23;45181;-78
2022/11/20 01:01:16;;;;;;;;;10.00;10.00;;;;;8.48;66.59;101131.97;6186664;23;45367;-78
2022/11/20 01:03:48;;;;;;;;;7.75;6.25;;;;;8.55;66.77;101153.88;6186338;23;45646;-78
2022/11/20 01:06:26;;;;;;;;;11.00;8.75;;;;;8.48;66.74;101150.34;6186656;23;45233;-78
2022/11/20 01:08:54;;;;;;;;;10.00;7.00;;;;;8.35;66.56;101124.78;6186815;23;45324;-78
2022/11/20 01:11:22;;;;;;;;;8.00;8.00;;;;;8.34;66.69;101133.50;6186287;23;45349;-78
2022/11/20 01:13:50;;;;;;;;;8.25;8.25;;;;;8.35;66.62;101149.28;6185802;23;46512;-79
2022/11/20 01:16:19;;;;;;;;;6.50;6.50;;;;;8.22;66.72;101120.25;6186914;23;45164;-77
2022/11/20 01:18:46;;;;;;;;;7.00;4.50;;;;;8.29;66.58;101143.09;6184467;23;45239;-78
2022/11/20 01:21:15;;;;;;;;;7.75;7.50;;;;;8.31;66.85;101164.94;6186695;23;45263;-78
2022/11/20 01:23:42;;;;;;;;;8.75;6.00;;;;;8.27;66.42;101158.78;6209266;22;47189;-77
2022/11/20 01:26:20;;;;;;;;;6.00;4.00;;;;;8.18;66.47;101145.56;6186296;23;45280;-78
2022/11/20 01:28:45;;;;;;;;;7.50;7.50;;;;;8.17;66.63;101146.41;6186545;23;45318;-78
2022/11/20 01:31:23;;;;;;;;;9.25;5.50;;;;;8.11;66.96;101138.47;6186650;23;45487;-78
2022/11/20 01:33:52;;;;;;;;;7.00;7.00;;;;;8.23;66.68;101156.09;6185926;23;45343;-77
2022/11/20 01:36:20;;;;;;;;;7.25;7.00;;;;;8.01;66.49;101132.22;6186090;23;45284;-77
2022/11/20 01:38:46;;;;;;;;;4.00;3.00;;;;;8.06;66.74;101140.16;6186768;22;45317;-77
2022/11/20 01:43:20;;;;;;;;;7.00;5.25;;;;;8.00;66.84;101137.47;6186277;23;45276;-78
2022/11/20 01:44:03;;;;;;;;;5.00;5.00;;;;;7.99;66.70;101135.69;6185432;23;45333;-78
2022/11/20 01:46:28;;;;;;;;;7.50;6.00;;;;;7.92;66.58;101126.88;6186153;23;45189;-77
2022/11/20 01:48:56;;;;;;;;;9.50;8.00;;;;;8.06;66.73;101162.00;6186493;23;45284;-78
2022/11/20 01:51:34;;;;;;;;;6.00;5.25;;;;;7.93;66.59;101140.00;6186407;23;45279;-78
2022/11/20 01:54:04;;;;;;;;;6.75;5.00;;;;;7.99;66.68;101139.19;6186397;23;45177;-79
2022/11/20 01:56:33;;;;;;;;;7.25;7.00;;;;;7.93;67.07;101140.00;6184072;23;45413;-77
2022/11/20 01:59:03;;;;;;;;;4.00;4.00;;;;;7.83;66.90;101127.66;6186129;23;45202;-78
2022/11/20 02:01:29;;;;;;;;;7.75;7.75;;;;;7.89;67.05;101139.94;6186897;23;45389;-77
2022/11/20 02:03:56;;;;;;;;;7.50;6.25;;;;;7.77;67.01;101113.56;6187376;23;45295;-78
2022/11/20 02:06:28;;;;;;;;;4.00;4.00;;;;;7.83;66.88;101125.03;6187657;23;45230;-78
2022/11/20 02:08:54;;;;;;;;;7.00;6.50;;;;;7.88;66.75;101122.44;6185698;23;45345;-77
2022/11/20 02:11:20;;;;;;;;;4.00;4.00;;;;;7.94;66.92;101133.91;6187563;23;45355;-79
2022/11/20 02:13:46;;;;;;;;;3.00;3.00;;;;;7.81;66.79;101108.38;6184996;23;46179;-78
2022/11/20 02:16:16;;;;;;;;;4.00;4.00;;;;;7.97;66.86;101126.94;6187597;23;45150;-78
2022/11/20 02:18:44;;;;;;;;;4.00;4.00;;;;;8.03;66.90;101134.88;6187407;23;45359;-77
2022/11/20 02:21:28;;;;;;;;;3.50;3.50;;;;;8.03;66.74;101133.13;6187563;23;45353;-78
2022/11/20 02:23:59;;;;;;;;;6.00;5.50;;;;;8.01;66.96;101134.84;6185004;23;47308;-78
2022/11/20 02:26:28;;;;;;;;;5.25;3.25;;;;;7.87;66.97;101105.84;6187552;23;45276;-78
2022/11/20 02:28:54;;;;;;;;;5.75;4.25;;;;;7.84;67.00;101097.94;6187052;23;45352;-78
2022/11/20 02:31:20;;;;;;;;;4.00;4.00;;;;;8.10;66.79;101132.38;6187458;22;45338;-77
2022/11/20 02:33:45;;;;;;;;;6.25;6.25;;;;;8.11;66.89;101128.88;6187359;23;45383;-78
2022/11/20 02:36:15;;;;;;;;;4.75;4.75;;;;;8.08;66.51;101118.34;6187737;23;45284;-78
2022/11/20 02:38:41;;;;;;;;;4.00;4.00;;;;;8.11;66.89;101120.13;6210912;22;45332;-78
2022/11/20 02:41:07;;;;;;;;;6.50;4.25;;;;;8.07;66.50;101105.19;6187428;23;45460;-78
2022/11/20 02:43:32;;;;;;;;;4.25;4.25;;;;;8.17;66.63;101107.94;6187088;23;45394;-78
2022/11/20 02:45:57;;;;;;;;;3.25;3.00;;;;;7.94;66.69;101076.22;6187703;23;45443;-78
2022/11/20 02:48:23;;;;;;;;;6.00;6.00;;;;;8.02;66.61;101086.81;6187709;23;45245;-78
2022/11/20 02:50:48;;;;;;;;;4.25;4.25;;;;;8.08;66.55;101089.50;6187694;23;45252;-78
2022/11/20 02:53:13;;;;;;;;;9.25;7.50;;;;;7.98;66.38;101066.66;6187563;23;45363;-78
2022/11/20 02:55:39;;;;;;;;;2.25;2.25;;;;;8.06;66.70;101080.72;6185458;23;45296;-78
2022/11/20 02:58:04;;;;;;;;;5.75;3.50;;;;;7.94;66.55;101057.88;6185374;23;45423;-78
2022/11/20 03:00:30;;;;;;;;;6.00;3.00;;;;;7.81;66.95;101021.91;6187695;23;45304;-79
2022/11/20 03:02:55;;;;;;;;;6.00;4.75;;;;;7.86;66.36;101033.31;6185098;23;45961;-78
2022/11/20 03:05:21;;;;;;;;;7.50;4.00;;;;;7.87;66.65;101034.19;6185399;23;45319;-78
2022/11/20 03:07:46;;;;;;;;;6.25;4.00;;;;;7.91;66.44;101036.88;6187512;23;45211;-79
2022/11/20 03:10:11;;;;;;;;;4.00;4.00;;;;;7.97;66.42;101041.31;6185726;23;45388;-78
2022/11/20 03:12:37;;;;;;;;;2.75;2.75;;;;;7.95;66.53;101028.16;6186841;23;45320;-78
2022/11/20 03:15:02;;;;;;;;;5.00;4.00;;;;;8.00;66.50;101037.84;6187122;23;45145;-78
2022/11/20 03:17:29;;;;;;;;;2.00;2.00;;;;;7.99;66.78;101026.44;6187249;23;45126;-78
2022/11/20 03:19:54;;;;;;;;;3.50;3.50;;;;;8.15;66.56;101052.00;6187476;22;45176;-78
2022/11/20 03:22:19;;;;;;;;;5.00;4.00;;;;;7.87;66.54;101003.63;6187256;23;45252;-78
2022/11/20 03:24:45;;;;;;;;;4.00;3.50;;;;;8.12;66.34;101045.84;6187394;23;45166;-79
2022/11/20 03:27:10;;;;;;;;;5.25;3.50;;;;;8.10;66.46;101031.81;6187600;23;45230;-77
2022/11/20 03:29:35;;;;;;;;;5.25;4.00;;;;;8.03;66.50;101028.25;6187318;23;45433;-78
2022/11/20 03:32:01;;;;;;;;;3.75;3.75;;;;;8.02;66.50;101017.75;6184860;23;45976;-78
2022/11/20 03:34:26;;;;;;;;;4.75;4.25;;;;;8.07;66.37;101035.31;6187165;23;45138;-78
2022/11/20 03:36:51;;;;;;;;;3.50;3.50;;;;;7.97;66.46;101019.47;6187288;23;45462;-78
2022/11/20 03:39:17;;;;;;;;;4.50;3.75;;;;;8.07;66.69;101032.69;6187343;23;45241;-78
2022/11/20 03:41:43;;;;;;;;;5.25;4.00;;;;;7.99;66.52;101007.22;6187141;23;45268;-78
2022/11/20 03:44:10;;;;;;;;;3.25;3.00;;;;;8.07;66.77;101016.06;6184878;23;45750;-79
2022/11/20 03:46:36;;;;;;;;;3.00;3.00;;;;;8.08;66.74;101010.84;6187052;23;45388;-78
2022/11/20 03:49:03;;;;;;;;;3.75;3.25;;;;;8.08;66.65;101005.59;6187068;23;45177;-78
2022/11/20 03:51:30;;;;;;;;;4.00;2.50;;;;;8.16;67.08;101008.31;6186884;23;45384;-78
2022/11/20 03:53:58;;;;;;;;;3.50;3.50;;;;;8.32;66.61;101025.94;6185072;23;45806;-78
2022/11/20 03:56:26;;;;;;;;;3.00;3.00;;;;;8.13;66.53;100997.78;6186775;23;45366;-78
2022/11/20 03:58:52;;;;;;;;;4.50;4.00;;;;;8.18;66.76;101001.34;6186825;23;45262;-78
2022/11/20 04:01:20;;;;;;;;;4.50;2.50;;;;;8.16;66.50;100989.94;6187725;23;45193;-78
2022/11/20 04:03:45;;;;;;;;;6.50;4.50;;;;;8.23;66.61;100994.38;6186728;23;45209;-78
2022/11/20 04:06:16;;;;;;;;;4.00;4.00;;;;;8.38;66.55;101025.13;6187151;23;45086;-78
2022/11/20 04:08:42;;;;;;;;;3.25;1.75;;;;;8.29;66.56;101004.06;6186164;23;45366;-78
2022/11/20 04:11:13;;;;;;;;;5.00;3.00;;;;;8.33;66.47;101006.72;6187029;23;46209;-78
2022/11/20 04:13:39;;;;;;;;;3.00;3.00;;;;;8.39;66.46;101005.91;6186772;23;45363;-78
2022/11/20 04:16:05;;;;;;;;;3.00;3.00;;;;;8.29;66.32;100998.81;6185689;23;45412;-78
2022/11/20 04:18:31;;;;;;;;;3.50;2.25;;;;;8.28;66.29;100997.03;6187241;23;45400;-77
2022/11/20 04:20:57;;;;;;;;;1.00;1.00;;;;;8.34;66.22;100991.84;6186785;23;45230;-78
2022/11/20 04:23:23;;;;;;;;;6.75;3.00;;;;;8.33;66.26;100984.84;6187244;23;45270;-78
2022/11/20 04:25:48;;;;;;;;;2.75;2.50;;;;;8.41;66.02;100996.31;6186991;23;45261;-78
2022/11/20 04:28:13;;;;;;;;;3.00;3.00;;;;;8.36;66.08;100985.75;6187694;23;45176;-78
2022/11/20 04:30:39;;;;;;;;;4.25;2.75;;;;;8.41;66.26;100990.22;6187045;23;45349;-77
2022/11/20 04:33:04;;;;;;;;;5.75;2.75;;;;;8.43;66.20;100981.50;6186843;23;45125;-79
2022/11/20 04:35:29;;;;;;;;;4.00;3.50;;;;;8.52;66.18;101005.16;6188845;23;45292;-79
2022/11/20 04:37:54;;;;;;;;;3.00;3.00;;;;;8.60;65.98;101023.59;6186990;23;45329;-79
2022/11/20 04:40:20;;;;;;;;;6.25;3.00;;;;;8.35;65.98;100975.25;6186861;23;45196;-79
2022/11/20 04:42:45;;;;;;;;;8.25;4.75;;;;;8.55;65.94;101020.06;6185291;23;45268;-78
2022/11/20 04:45:11;;;;;;;;;3.25;2.00;;;;;8.31;65.95;100976.09;6185519;23;45292;-78
2022/11/20 04:47:36;;;;;;;;;3.00;3.00;;;;;8.43;66.03;100998.97;6186954;23;45163;-78
2022/11/20 04:50:02;;;;;;;;;3.00;3.00;;;;;8.33;65.99;100987.47;6186704;23;45474;-77
2022/11/20 04:52:27;;;;;;;;;3.25;1.50;;;;;8.22;66.11;100981.25;6187281;23;45392;-78
2022/11/20 04:54:53;;;;;;;;;3.25;3.25;;;;;8.26;66.03;100983.94;6185665;23;45401;-79
2022/11/20 04:57:18;;;;;;;;;2.75;2.75;;;;;8.30;66.10;100990.94;6184792;23;45490;-79
2022/11/20 04:59:44;;;;;;;;;2.75;2.75;;;;;8.24;66.10;100976.91;6184428;23;48200;-78
2022/11/20 05:02:10;;;;;;;;;2.75;2.00;;;;;8.31;66.06;100981.34;6185518;23;45388;-78
2022/11/20 05:04:36;;;;;;;;;2.25;2.25;;;;;8.30;66.40;100977.84;6186712;23;45398;-78
2022/11/20 05:07:01;;;;;;;;;4.00;3.00;;;;;8.43;66.18;100996.34;6186874;23;45339;-78
2022/11/20 05:09:27;;;;;;;;;2.00;2.00;;;;;8.34;65.72;100977.00;6187100;23;46344;-78
2022/11/20 05:11:52;;;;;;;;;3.75;3.00;;;;;8.39;66.05;100982.31;6187186;23;45216;-78
2022/11/20 05:14:17;;;;;;;;;4.00;2.50;;;;;8.27;65.62;100950.72;6184633;23;45162;-78
2022/11/20 05:16:43;;;;;;;;;3.00;1.00;;;;;8.28;66.08;100953.31;6184602;23;45572;-79
2022/11/20 05:19:08;;;;;;;;;2.75;2.75;;;;;8.34;65.73;100957.75;6187060;23;45179;-78
2022/11/20 05:21:33;;;;;;;;;1.50;1.50;;;;;8.39;65.75;100967.47;6184673;23;46180;-78
2022/11/20 05:23:59;;;;;;;;;3.50;3.00;;;;;8.33;65.82;100951.63;6184472;23;45254;-78
2022/11/20 05:26:24;;;;;;;;;2.00;2.00;;;;;8.48;66.06;100979.78;6186536;23;45446;-78
2022/11/20 05:28:50;;;;;;;;;3.00;3.00;;;;;8.36;65.83;100956.03;6185435;23;47979;-78
2022/11/20 05:31:19;;;;;;;;;2.00;2.00;;;;;8.38;65.51;100968.28;6186910;23;45173;-78
2022/11/20 05:33:45;;;;;;;;;4.00;3.00;;;;;8.39;65.73;100961.31;6186256;23;45288;-78
2022/11/20 05:36:12;;;;;;;;;3.00;3.00;;;;;8.29;65.33;100949.88;6186706;23;45423;-78
2022/11/20 05:38:37;;;;;;;;;3.25;3.25;;;;;8.30;65.50;100948.97;6185060;23;48034;-78
2022/11/20 05:41:17;;;;;;;;;2.25;2.25;;;;;8.41;65.42;100969.22;6186783;23;45146;-78
2022/11/20 05:43:45;;;;;;;;;3.75;2.00;;;;;8.15;65.28;100931.38;6186237;23;45236;-78
2022/11/20 05:46:12;;;;;;;;;3.75;2.25;;;;;8.42;65.47;100978.84;6185592;23;45551;-78
2022/11/20 05:48:39;;;;;;;;;4.00;2.25;;;;;8.29;65.51;100959.47;6186146;23;46579;-78
2022/11/20 05:51:07;;;;;;;;;4.50;3.00;;;;;8.22;65.28;100941.91;6186364;22;45236;-79
2022/11/20 05:53:34;;;;;;;;;4.75;3.75;;;;;8.25;65.79;100955.06;6184809;23;45364;-78
2022/11/20 05:56:05;;;;;;;;;4.00;2.00;;;;;8.26;65.58;100946.31;6184718;23;45709;-78
2022/11/20 05:58:31;;;;;;;;;3.75;3.00;;;;;8.32;65.53;100960.38;6186184;23;46489;-78
2022/11/20 06:01:11;;;;;;;;;5.25;2.50;;;;;8.31;65.36;100949.84;6186261;23;45166;-78
2022/11/20 06:03:37;;;;;;;;;2.50;2.50;;;;;8.35;65.72;100943.78;6187327;23;45248;-78
2022/11/20 06:06:04;;;;;;;;;2.25;2.25;;;;;8.39;65.72;100946.50;6186073;23;45087;-78
2022/11/20 06:08:30;;;;;;;;;3.00;3.00;;;;;8.37;65.65;100935.06;6185855;23;47443;-78
2022/11/20 06:10:55;;;;;;;;;4.00;2.00;;;;;8.40;65.75;100936.88;6186111;23;45162;-78
2022/11/20 06:13:20;;;;;;;;;7.00;2.50;;;;;8.55;65.62;100957.09;6187194;23;45234;-78
2022/11/20 06:15:53;;;;;;;;;3.00;2.00;;;;;8.49;65.47;100941.31;6184371;23;45273;-78
2022/11/20 06:18:19;;;;;;;;;3.25;2.00;;;;;8.51;65.49;100944.81;6186219;23;45200;-78
2022/11/20 06:20:45;;;;;;;;;2.00;2.00;;;;;8.42;65.44;100918.50;6186651;23;45146;-78
2022/11/20 06:23:10;;;;;;;;;1.75;1.25;;;;;8.53;65.27;100937.84;6184636;23;45163;-78
2022/11/20 06:25:43;;;;;;;;;3.75;3.75;;;;;8.56;65.23;100946.63;6185719;23;45177;-78
2022/11/20 06:28:09;;;;;;;;;1.75;1.75;;;;;8.35;65.17;100918.44;6185999;23;45198;-78
2022/11/20 06:30:34;;;;;;;;;6.00;3.50;;;;;8.39;65.26;100921.97;6185277;23;45171;-78
2022/11/20 06:33:00;;;;;;;;;2.00;2.00;;;;;8.38;65.05;100928.94;6186289;23;45150;-78
2022/11/20 06:35:25;;;;;;;;;3.25;2.00;;;;;8.52;65.13;100951.81;6185955;23;45208;-78
2022/11/20 06:37:50;;;;;;;;;3.00;2.00;;;;;8.43;65.16;100933.41;6186389;23;46269;-78
2022/11/20 06:40:16;;;;;;;;;2.50;2.00;;;;;8.49;64.93;100928.19;6184309;23;45173;-78
2022/11/20 06:42:41;;;;;;;;;2.25;1.75;;;;;8.47;64.94;100928.16;6186259;23;45166;-78
2022/11/20 06:45:07;;;;;;;;;1.50;1.50;;;;;8.43;64.35;100913.28;6183628;23;45458;-79
2022/11/20 06:47:33;;;;;;;;;2.50;2.50;;;;;8.50;64.74;100925.59;6186037;23;45366;-78
2022/11/20 06:49:59;;;;;;;;;5.75;4.50;;;;;8.54;64.76;100916.84;6187437;23;45452;-77
2022/11/20 06:52:24;;;;;;;;;2.75;2.00;;;;;8.59;64.43;100933.50;6187771;23;45356;-77
2022/11/20 06:54:49;;;;;;;;;3.00;3.00;;;;;8.52;64.23;100922.97;6187600;23;45280;-78
2022/11/20 06:57:15;;;;;;;;;1.50;1.50;;;;;8.65;64.28;100937.94;6188013;23;46258;-78
2022/11/20 06:59:40;;;;;;;;;4.75;3.25;;;;;8.74;64.05;100961.63;6187148;23;45331;-78
2022/11/20 07:02:09;;;;;;;;;4.50;3.00;;;;;8.58;64.02;100926.53;6187533;23;45284;-77
2022/11/20 07:04:35;;;;;;;;;3.00;1.50;;;;;8.61;64.12;100942.28;6185602;23;45395;-78
2022/11/20 07:07:00;;;;;;;;;2.75;2.25;;;;;8.76;64.42;100970.38;6187772;23;45311;-79
2022/11/20 07:09:25;;;;;;;;;2.75;2.00;;;;;8.61;63.96;100930.91;6187655;23;45141;-78
2022/11/20 07:11:51;;;;;;;;;3.00;1.50;;;;;8.65;63.96;100939.69;6185305;23;45178;-79
2022/11/20 07:14:16;;;;;;;;;3.00;3.00;;;;;8.69;63.70;100944.09;6187858;23;45216;-79
2022/11/20 07:16:41;;;;;;;;;3.00;2.00;;;;;8.67;63.75;100944.06;6187808;23;45296;-78
2022/11/20 07:19:07;;;;;;;;;2.75;2.75;;;;;8.70;63.85;100961.59;6187274;23;45429;-79
2022/11/20 07:21:32;;;;;;;;;2.00;2.00;;;;;8.39;63.44;100908.84;6187663;23;45244;-79
2022/11/20 07:23:58;;;;;;;;;3.00;3.00;;;;;8.46;63.67;100910.66;6186096;23;45811;-78
2022/11/20 07:26:33;;;;;;;;;;;;;;;;;;;;;
2022/11/20 07:29:09;;;;;;;;;;;;;;;;;;;;;
2022/11/20 07:31:34;;;;;;;;;4.50;3.75;;;;;8.39;63.43;100914.09;6186636;23;68674;-77
2022/11/20 07:34:03;;;;;;;;;4.00;3.00;;;;;8.64;63.50;100962.44;6187601;23;45590;-76
2022/11/20 07:36:38;;;;;;;;;;;;;;;;;;;;;
2022/11/20 07:39:04;;;;;;;;;2.00;1.25;;;;;8.60;62.74;100952.75;6186146;23;73052;-77
2022/11/20 07:41:31;;;;;;;;;3.75;1.75;;;;;8.57;62.66;100942.25;6185788;23;45596;-77
2022/11/20 07:43:56;;;;;;;;;2.00;2.00;;;;;8.52;62.88;100925.59;6184847;23;45910;-77
2022/11/20 07:46:22;;;;;;;;;3.00;2.00;;;;;8.53;62.84;100925.59;6185036;23;46230;-78
2022/11/20 07:48:57;;;;;;;;;;;;;;;;;;;;;
2022/11/20 07:51:33;;;;;;;;;;;;;;;;;;;;;
2022/11/20 07:54:08;;;;;;;;;;;;;;;;;;;;;
2022/11/20 07:56:34;;;;;;;;;2.75;2.75;;;;;8.84;63.00;100962.56;6185558;23;74905;-77
2022/11/20 07:59:06;;;;;;;;;2.75;2.75;;;;;8.73;62.83;100935.34;6185529;23;45332;-77
2022/11/20 08:01:42;;;;;;;;;;;;;;;;;;;;;
2022/11/20 08:04:09;;;;;;;;;3.00;3.00;;;;;8.93;62.60;100957.38;6185812;23;71690;-77
2022/11/20 08:06:45;;;;;;;;;;;;;;;;;;;;;
2022/11/20 08:09:13;;;;;;;;;1.75;1.75;;;;;8.80;62.58;100937.16;6186113;23;71624;-76
2022/11/20 08:14:32;;;;;;;;;;;;;;;;;;;;;
2022/11/20 08:16:59;;;;;;;;;3.75;2.75;;;;;8.88;62.68;100932.84;6185855;23;75283;-76
2022/11/20 08:19:27;;;;;;;;;3.75;3.00;;;;;8.83;62.81;100918.81;6186710;23;45220;-76
2022/11/20 08:21:55;;;;;;;;;3.75;2.50;;;;;8.96;62.75;100936.41;6186776;23;45349;-77
2022/11/20 08:24:28;;;;;;;;;4.00;3.00;;;;;9.07;63.37;100943.47;6210380;22;45520;-76
2022/11/20 08:27:03;;;;;;;;;;;;;;;;;;;;;
2022/11/20 08:29:31;;;;;;;;;3.00;3.00;;;;;9.10;63.70;100940.84;6185441;23;72100;-77
2022/11/20 08:32:07;;;;;;;;;;;;;;;;;;;;;
2022/11/20 08:34:42;;;;;;;;;;;;;;;;;;;;;
2022/11/20 08:37:18;;;;;;;;;;;;;;;;;;;;;
2022/11/20 08:39:53;;;;;;;;;;;;;;;;;;;;;
2022/11/20 08:42:22;;;;;;;;;4.00;4.00;;;;;9.18;63.90;100919.00;6185934;23;68721;-78
2022/11/20 08:44:47;;;;;;;;;3.00;3.00;;;;;9.13;64.00;100904.09;6186163;22;45324;-76
2022/11/20 08:47:15;;;;;;;;;5.00;3.00;;;;;8.97;64.17;100874.25;6186722;23;45379;-77
2022/11/20 08:49:51;;;;;;;;;;;;;;;;;;;;;
2022/11/20 08:52:16;;;;;;;;;4.50;4.50;;;;;9.05;64.53;100888.28;6186717;23;68220;-76
2022/11/20 08:54:41;;;;;;;;;7.00;5.00;;;;;9.16;65.16;100907.59;6183687;23;45514;-77
2022/11/20 08:57:17;;;;;;;;;;;;;;;;;;;;;
2022/11/20 08:59:45;;;;;;;;;8.00;6.25;;;;;9.23;65.10;100904.13;6185397;23;72105;-77
2022/11/20 09:02:10;;;;;;;;;5.25;3.25;;;;;9.13;65.70;100881.31;6209812;22;45256;-77
2022/11/20 09:04:35;;;;;;;;;8.00;5.50;;;;;9.15;65.57;100883.97;6183901;23;45891;-77
2022/11/20 09:07:01;;;;;;;;;8.75;6.00;;;;;9.00;65.90;100850.63;6186119;23;46269;-77
2022/11/20 09:09:26;;;;;;;;;7.75;4.50;;;;;9.22;65.57;100891.88;6184969;23;45282;-77
2022/11/20 09:12:01;;;;;;;;;;;;;;;;;;;;;
2022/11/20 09:14:38;;;;;;;;;;;;;;;;;;;;;
2022/11/20 09:17:14;;;;;;;;;;;;;;;;;;;;;
2022/11/20 09:19:50;;;;;;;;;;;;;;;;;;;;;
2022/11/20 09:22:19;;;;;;;;;8.75;6.50;;;;;9.05;66.27;100854.16;6185242;23;67520;-77
2022/11/20 09:24:51;;;;;;;;;9.25;8.75;;;;;9.13;66.25;100860.31;6184235;23;45257;-77
2022/11/20 09:27:28;;;;;;;;;9.00;7.50;;;;;9.17;66.61;100861.22;6187777;23;45204;-77
2022/11/20 09:30:02;;;;;;;;;7.75;6.50;;;;;9.05;66.46;100830.50;6186308;23;45248;-79
2022/11/20 09:32:27;;;;;;;;;5.50;4.25;;;;;9.20;66.75;100858.59;6184630;23;45205;-78
2022/11/20 09:34:53;;;;;;;;;9.75;6.25;;;;;9.20;66.44;100850.72;6184795;23;45119;-80
2022/11/20 09:37:18;;;;;;;;;7.25;5.75;;;;;9.16;67.09;100860.31;6186610;23;46823;-78
2022/11/20 09:39:44;;;;;;;;;10.50;9.00;;;;;9.25;67.17;100865.63;6184401;23;45278;-78
2022/11/20 09:42:27;;;;;;;;;10.00;8.00;;;;;9.26;67.42;100859.47;6186464;23;45743;-78
2022/11/20 09:45:05;;;;;;;;;9.50;9.50;;;;;9.30;67.31;100856.88;6187048;23;45251;-79
2022/11/20 09:47:43;;;;;;;;;10.50;8.50;;;;;9.33;67.56;100854.25;6184981;23;47049;-77
2022/11/20 09:50:17;;;;;;;;;11.00;11.00;;;;;9.38;67.68;100860.38;6185707;23;45378;-76
2022/11/20 09:52:48;;;;;;;;;9.50;9.00;;;;;9.43;68.15;100856.91;6186112;23;45424;-76
2022/11/20 09:55:15;;;;;;;;;9.25;9.25;;;;;9.44;67.67;100853.41;6186919;23;45171;-77
2022/11/20 09:57:45;;;;;;;;;11.50;9.25;;;;;9.30;67.80;100825.34;6185106;22;45500;-77
2022/11/20 10:00:23;;;;;;;;;;;;;;;;;;;;;
2022/11/20 10:03:06;;;;;;;;;10.75;9.50;;;;;9.38;67.76;100845.53;6185341;23;67090;-77
2022/11/20 10:05:45;;;;;;;;;;;;;;;;;;;;;
2022/11/20 10:08:21;;;;;;;;;9.00;8.50;;;;;9.36;68.49;100849.03;6184235;23;74246;-77
2022/11/20 10:10:56;;;;;;;;;9.75;9.00;;;;;9.09;68.04;100811.28;6183509;23;45198;-77
2022/11/20 10:13:42;;;;;;;;;7.25;7.25;;;;;9.22;68.19;100822.69;6186726;23;45102;-77
2022/11/20 10:16:46;;;;;;;;;8.25;8.25;;;;;9.31;68.46;100832.38;6183515;23;45806;-76
2022/11/20 10:19:17;;;;;;;;;11.25;10.75;;;;;9.41;69.06;100828.88;6185219;23;45648;-76
2022/11/20 10:22:20;;;;;;;;;12.00;9.50;;;;;9.45;69.00;100807.00;6184317;23;45270;-76
2022/11/20 10:25:08;;;;;;;;;9.00;8.00;;;;;9.35;69.16;100790.31;6187157;22;45446;-75
2022/11/20 10:28:02;;;;;;;;;10.25;8.50;;;;;9.38;68.92;100795.59;6185014;23;45197;-75
2022/11/20 10:30:31;;;;;;;;;11.50;10.00;;;;;9.38;69.53;100784.19;6187314;23;45374;-76
2022/11/20 10:33:06;;;;;;;;;9.00;9.00;;;;;9.54;69.11;100793.84;6186903;23;45213;-76
2022/11/20 10:35:53;;;;;;;;;;;;;;;;;;;;;
2022/11/20 10:38:25;;;;;;;;;8.25;5.50;;;;;9.69;69.69;100819.28;6186902;23;71523;-78
2022/11/20 10:44:03;;;;;;;;;;;;;;;;;;;;;
2022/11/20 10:46:40;;;;;;;;;5.00;5.00;;;;;9.70;69.67;100787.75;6186585;23;68720;-75
2022/11/20 10:49:15;;;;;;;;;5.00;5.00;;;;;9.69;69.80;100774.59;6187170;23;45189;-77
2022/11/20 10:52:08;;;;;;;;;4.25;4.00;;;;;9.82;69.85;100800.03;6184930;23;46700;-77
2022/11/20 10:54:45;;;;;;;;;3.75;3.25;;;;;9.67;69.71;100782.47;6184950;23;45202;-75
2022/11/20 10:57:50;;;;;;;;;;;;;;;;;;;;;
2022/11/20 11:00:17;;;;;;;;;5.00;5.00;;;;;9.67;70.08;100785.09;6153047;23;71355;-79
2022/11/20 11:03:04;;;;;;;;;5.25;5.25;;;;;9.75;70.65;100786.88;6184891;23;47441;-86
2022/11/20 11:05:41;;;;;;;;;4.00;3.00;;;;;9.66;70.61;100764.09;6185618;23;45407;-76
2022/11/20 11:08:16;;;;;;;;;4.00;4.00;;;;;9.79;70.64;100772.88;6185459;23;45321;-77
2022/11/20 11:10:51;;;;;;;;;2.50;2.50;;;;;9.78;71.14;100750.94;6185247;23;45473;-76
2022/11/20 11:13:22;;;;;;;;;3.00;2.00;;;;;9.82;71.22;100754.44;6210390;22;46886;-77
2022/11/20 11:15:58;;;;;;;;;3.00;3.00;;;;;9.87;71.49;100748.31;6185396;23;45837;-78
2022/11/20 11:18:28;;;;;;;;;4.50;4.00;;;;;9.90;71.62;100743.03;6187047;23;45251;-77
2022/11/20 11:20:55;;;;;;;;;3.25;2.75;;;;;9.91;71.27;100743.91;6185093;23;45648;-76
2022/11/20 11:23:38;;;;;;;;;1.25;1.25;;;;;10.01;71.43;100760.56;6188001;23;45502;-76
2022/11/20 11:26:47;;;;;;;;;;;;;;;;;;;;;
2022/11/20 11:29:27;;;;;;;;;;;;;;;;;;;;;
2022/11/20 11:32:21;;;;;;;;;;;;;;;;;;;;;
2022/11/20 11:35:28;;;;;;;;;;;;;;;;;;;;;
2022/11/20 11:38:11;;;;;;;;;0.75;0.75;;;;;9.85;71.87;100734.28;6124968;23;72762;-81
2022/11/20 11:40:49;;;;;;;;;;;;;;;;;;;;;
2022/11/20 11:46:44;;;;;;;;;;;;;;;;;;;;;
2022/11/20 11:49:19;;;;;;;;;;;;;;;;;;;;;
2022/11/20 11:52:19;;;;;;;;;;;;;;;;;;;;;
2022/11/20 11:55:02;;;;;;;;;;;;;;;;;;;;;
2022/11/20 11:57:54;;;;;;;;;2.00;2.00;;;;;9.91;72.05;100738.66;6123106;23;74357;-80
2022/11/20 12:00:24;;;;;;;;;2.00;2.00;;;;;9.63;71.66;100674.72;6097879;23;45501;-80
2022/11/20 12:03:22;;;;;;;;;2.00;2.00;;;;;9.93;71.84;100716.75;6097775;23;45595;-79
2022/11/20 12:05:59;;;;;;;;;1.67;1.67;;;;;9.96;71.66;100707.97;6101918;23;45408;-79
2022/11/20 12:08:42;;;;;;;;;3.75;3.75;;;;;9.77;71.92;100682.59;6098860;23;46933;-79
2022/11/20 12:11:43;;;;;;;;;2.00;2.00;;;;;9.80;71.60;100674.69;6098584;23;45425;-79
2022/11/20 12:14:39;;;;;;;;;2.25;1.25;;;;;9.69;71.74;100646.66;6125189;23;45346;-81
2022/11/20 12:17:05;;;;;;;;;2.00;2.00;;;;;10.06;71.93;100693.06;6123970;23;45427;-80
2022/11/20 12:19:33;;;;;;;;;3.25;3.25;;;;;10.19;71.82;100696.53;6099034;23;47678;-78
2022/11/20 12:22:43;;;;;;;;;2.67;2.00;;;;;10.15;71.71;100683.38;6125891;23;45309;-78
2022/11/20 12:25:28;;;;;;;;;1.67;1.67;;;;;10.17;71.59;100688.63;6123373;23;45091;-80
2022/11/20 12:28:16;;;;;;;;;4.00;2.67;;;;;10.26;71.69;100693.84;6097108;23;45541;-80
2022/11/20 12:31:02;;;;;;;;;2.00;2.00;;;;;10.34;71.40;100707.94;6125087;23;45472;-80
2022/11/20 12:33:49;;;;;;;;;5.00;3.00;;;;;10.34;71.72;100701.75;6099145;23;45788;-80
2022/11/20 12:36:24;;;;;;;;;6.75;5.00;;;;;10.23;71.17;100716.69;6099068;23;45383;-80
2022/11/20 12:38:53;;;;;;;;;4.75;3.50;;;;;10.12;71.13;100716.72;6125572;23;45313;-78
2022/11/20 12:45:09;;;;;;;;;4.00;4.00;;;;;10.07;72.07;100723.72;6125352;23;45838;-79